Time;durP1;ratioP1;P1;durP2;ratioP2;P2;SDS_P1;SDS_P2;PMS_P1;PMS_P2;Temp;Humidity;BMP_temperature;BMP_pressure;BME280_temperature;BME280_humidity;BME280_pressure;Samples;Min_cycle;Max_cycle;Signal;HPM_P1;HPM_P2
2024/01/31 00:00:09;;;;;;;16.25;7.53;;;;;;;11.33;78.29;102497.75;4951257;28;97404;-71
2024/01/31 00:02:36;;;;;;;9.65;6.88;;;;;;;11.42;77.27;102502.94;4950826;28;99848;-70
2024/01/31 00:05:04;;;;;;;16.02;7.82;;;;;;;11.20;78.76;102498.78;4950610;28;99522;-71
2024/01/31 00:07:30;;;;;;;13.52;7.40;;;;;;;11.36;77.11;102508.28;4952688;28;96762;-71
2024/01/31 00:09:57;;;;;;;11.10;6.65;;;;;;;11.42;76.98;102502.94;4949854;28;97407;-71
2024/01/31 00:12:23;;;;;;;12.95;5.97;;;;;;;11.27;76.99;102507.53;4947442;28;99707;-71
2024/01/31 00:14:50;;;;;;;14.30;6.50;;;;;;;11.47;75.80;102508.19;4950627;28;100807;-70
2024/01/31 00:17:16;;;;;;;11.35;6.60;;;;;;;11.65;75.22;102502.69;4946865;28;96831;-70
2024/01/31 00:19:43;;;;;;;14.13;5.97;;;;;;;11.73;75.00;102506.13;4953775;28;97028;-69
2024/01/31 00:22:10;;;;;;;11.98;6.70;;;;;;;11.78;74.30;102498.13;4953043;28;101162;-70
2024/01/31 00:24:37;;;;;;;13.90;6.82;;;;;;;12.02;73.26;102504.88;4958860;28;98902;-70
2024/01/31 00:27:03;;;;;;;11.65;6.60;;;;;;;11.77;74.17;102501.69;4953102;28;96941;-70
2024/01/31 00:29:29;;;;;;;12.20;6.47;;;;;;;11.88;74.02;102510.38;4949905;28;97207;-69
2024/01/31 00:31:56;;;;;;;11.85;7.13;;;;;;;11.82;74.17;102502.50;4945526;28;98934;-69
2024/01/31 00:34:22;;;;;;;11.57;6.18;;;;;;;11.84;73.98;102506.00;4954416;28;98957;-70
2024/01/31 00:36:48;;;;;;;12.45;7.28;;;;;;;11.71;74.03;102505.25;4951487;28;97170;-69
2024/01/31 00:39:16;;;;;;;11.70;6.97;;;;;;;11.79;73.95;102502.53;4956273;28;98063;-69
2024/01/31 00:41:43;;;;;;;9.45;6.22;;;;;;;11.69;73.87;102503.50;4951555;28;99256;-70
2024/01/31 00:44:09;;;;;;;15.07;6.80;;;;;;;11.61;74.42;102506.28;4951067;28;102463;-70
2024/01/31 00:46:41;;;;;;;10.35;6.18;;;;;;;11.52;74.36;102503.72;4952409;28;97193;-70
2024/01/31 00:49:08;;;;;;;10.10;5.80;;;;;;;11.31;74.95;102504.84;4949021;28;98493;-71
2024/01/31 00:51:34;;;;;;;10.57;5.25;;;;;;;11.19;75.59;102507.59;4955428;28;99300;-70
2024/01/31 00:54:01;;;;;;;7.32;5.32;;;;;;;11.28;75.15;102502.22;4955718;28;99162;-70
2024/01/31 00:56:29;;;;;;;10.60;5.53;;;;;;;11.32;75.15;102506.59;4954093;28;101510;-70
2024/01/31 00:58:55;;;;;;;11.52;5.38;;;;;;;11.32;74.84;102505.72;4952665;28;97804;-70
2024/01/31 01:01:22;;;;;;;13.95;5.95;;;;;;;11.57;73.64;102505.41;4952831;28;100880;-70
2024/01/31 01:03:48;;;;;;;6.68;3.75;;;;;;;11.05;75.56;102504.22;4956679;28;99502;-69
2024/01/31 01:06:14;;;;;;;10.68;5.10;;;;;;;11.03;75.59;102498.06;4953657;28;97623;-69
2024/01/31 01:08:41;;;;;;;10.85;5.80;;;;;;;11.08;75.60;102497.16;4952229;28;96954;-69
2024/01/31 01:11:08;;;;;;;8.75;4.75;;;;;;;11.33;74.03;102497.75;4951577;28;99962;-69
2024/01/31 01:13:35;;;;;;;6.80;4.75;;;;;;;11.45;72.88;102497.63;4949629;28;101364;-69
2024/01/31 01:16:02;;;;;;;7.07;4.50;;;;;;;11.09;74.59;102492.75;4953804;28;97884;-70
2024/01/31 01:18:28;;;;;;;5.95;3.97;;;;;;;10.69;76.28;102495.75;4951163;28;97500;-69
2024/01/31 01:20:55;;;;;;;8.70;5.30;;;;;;;11.21;74.58;102494.38;4953930;28;99779;-69
2024/01/31 01:23:21;;;;;;;8.95;4.85;;;;;;;10.90;75.67;102494.66;4949773;28;101753;-69
2024/01/31 01:25:47;;;;;;;7.03;4.15;;;;;;;11.25;73.72;102494.31;4955300;28;98440;-70
2024/01/31 01:28:14;;;;;;;9.95;4.57;;;;;;;11.43;73.05;102496.75;4952261;28;97325;-70
2024/01/31 01:30:42;;;;;;;5.82;3.30;;;;;;;11.50;71.81;102493.13;4952374;28;99351;-71
2024/01/31 01:33:08;;;;;;;6.68;4.50;;;;;;;11.78;71.05;102492.84;4948314;28;101702;-71
2024/01/31 01:35:34;;;;;;;9.02;4.60;;;;;;;11.61;71.43;102497.44;4951784;28;97503;-71
2024/01/31 01:38:01;;;;;;;9.70;4.95;;;;;;;11.84;70.71;102496.28;4952824;28;97241;-71
2024/01/31 01:40:27;;;;;;;7.15;4.13;;;;;;;11.46;71.85;102491.44;4954892;28;98862;-69
2024/01/31 01:42:53;;;;;;;7.07;3.70;;;;;;;11.28;72.53;102504.88;4950322;28;102188;-69
2024/01/31 01:45:20;;;;;;;7.03;4.15;;;;;;;11.47;71.81;102502.91;4950810;28;96873;-70
2024/01/31 01:47:50;;;;;;;6.65;4.03;;;;;;;11.66;70.37;102491.19;4951178;28;97995;-68
2024/01/31 01:50:18;;;;;;;7.18;2.75;;;;;;;11.05;72.28;102491.88;4949239;28;101888;-68
2024/01/31 01:52:45;;;;;;;4.15;2.92;;;;;;;10.90;73.96;102493.78;4952783;28;98137;-68
2024/01/31 01:55:11;;;;;;;4.95;2.80;;;;;;;11.12;73.12;102487.41;4953312;28;97168;-69
2024/01/31 01:57:38;;;;;;;3.90;2.45;;;;;;;11.03;72.97;102495.41;4952248;28;97815;-68
2024/01/31 02:00:09;;;;;;;7.00;3.05;;;;;;;11.18;72.72;102493.50;4955375;28;97793;-70
2024/01/31 02:02:36;;;;;;;32.75;4.07;;;;;;;10.67;74.60;102502.81;4950306;28;101526;-70
2024/01/31 02:05:06;;;;;;;6.70;2.97;;;;;;;10.65;75.75;102496.63;4948911;28;96798;-69
2024/01/31 02:07:33;;;;;;;4.00;2.58;;;;;;;10.80;75.10;102508.88;4950847;28;97117;-70
2024/01/31 02:10:01;;;;;;;3.97;2.45;;;;;;;11.16;73.34;102503.22;4948798;28;102589;-68
2024/01/31 02:12:27;;;;;;;4.07;1.92;;;;;;;10.94;74.38;102508.75;4949947;28;98825;-69
2024/01/31 02:14:55;;;;;;;2.72;1.50;;;;;;;10.52;76.82;102505.56;4957184;28;97112;-69
2024/01/31 02:17:22;;;;;;;3.25;1.70;;;;;;;10.39;78.63;102507.41;4947618;28;98567;-69
2024/01/31 02:19:48;;;;;;;3.53;1.80;;;;;;;11.00;76.17;102525.44;4949727;28;99307;-70
2024/01/31 02:22:18;;;;;;;1.67;1.40;;;;;;;10.66;77.61;102511.63;4951932;28;101132;-70
2024/01/31 02:24:45;;;;;;;1.83;1.50;;;;;;;10.56;78.65;102525.81;4954727;28;97726;-70
2024/01/31 02:27:11;;;;;;;1.80;1.30;;;;;;;10.41;80.23;102523.25;4951105;28;97115;-72
2024/01/31 02:29:38;;;;;;;2.08;1.27;;;;;;;10.22;80.90;102516.34;4953519;28;99197;-69
2024/01/31 02:32:06;;;;;;;5.40;1.45;;;;;;;10.65;79.44;102509.84;4946994;28;99743;-69
2024/01/31 02:34:33;;;;;;;2.30;1.38;;;;;;;10.34;79.98;102510.97;4945790;28;96897;-70
2024/01/31 02:36:59;;;;;;;2.58;1.70;;;;;;;10.74;78.23;102515.09;4957418;28;97140;-70
2024/01/31 02:39:27;;;;;;;1.77;1.38;;;;;;;10.87;77.42;102517.63;4952862;28;97405;-70
2024/01/31 02:41:53;;;;;;;2.03;1.40;;;;;;;10.88;77.07;102522.03;4949750;28;99263;-69
2024/01/31 02:44:21;;;;;;;3.58;1.50;;;;;;;10.72;78.02;102511.56;4949538;28;97001;-69
2024/01/31 02:46:47;;;;;;;2.25;1.85;;;;;;;10.96;76.80;102505.16;4953993;28;96772;-69
2024/01/31 02:49:14;;;;;;;7.35;1.70;;;;;;;11.04;76.40;102505.97;4950821;28;98907;-69
2024/01/31 02:51:40;;;;;;;3.60;1.67;;;;;;;10.69;78.42;102514.25;4951014;28;98775;-69
2024/01/31 02:54:06;;;;;;;1.27;1.17;;;;;;;10.62;78.25;102515.19;4949070;28;98277;-70
2024/01/31 02:56:33;;;;;;;;;;;;;;;10.45;79.23;102501.19;4951407;28;99496;-70
2024/01/31 02:58:59;;;;;;;;;;;;;;;10.73;78.36;102513.31;4949605;28;101106;-69
2024/01/31 03:01:26;;;;;;;5.15;1.02;;;;;;;10.65;78.23;102517.78;4950424;28;98992;-69
2024/01/31 03:03:52;;;;;;;3.03;1.35;;;;;;;10.68;78.01;102523.06;4948303;28;97386;-68
2024/01/31 03:06:18;;;;;;;1.42;1.17;;;;;;;10.95;77.09;102524.59;4949994;28;98844;-70
2024/01/31 03:08:45;;;;;;;1.90;1.00;;;;;;;10.99;76.36;102521.03;4950385;28;98902;-68
2024/01/31 03:11:11;;;;;;;1.25;1.15;;;;;;;10.95;76.87;102531.66;4947720;28;98860;-70
2024/01/31 03:13:39;;;;;;;1.25;1.10;;;;;;;10.64;78.49;102525.72;4945243;28;97847;-70
2024/01/31 03:16:05;;;;;;;1.35;1.02;;;;;;;10.88;77.30;102530.84;4949552;28;97245;-70
2024/01/31 03:18:31;;;;;;;1.33;1.00;;;;;;;10.89;77.34;102531.72;4947944;28;98081;-70
2024/01/31 03:20:58;;;;;;;1.05;0.95;;;;;;;10.38;79.33;102537.34;4950933;28;101344;-70
2024/01/31 03:23:24;;;;;;;1.60;0.77;;;;;;;10.32;79.98;102540.03;4952901;28;98039;-69
2024/01/31 03:25:50;;;;;;;3.90;1.20;;;;;;;10.78;78.39;102532.66;4951477;28;98779;-71
2024/01/31 03:28:17;;;;;;;2.58;1.48;;;;;;;10.67;78.84;102544.22;4950731;28;99327;-69
2024/01/31 03:30:45;;;;;;;1.85;0.70;;;;;;;10.61;79.03;102541.63;4949794;28;99154;-70
2024/01/31 03:33:11;;;;;;;0.80;0.70;;;;;;;10.42;80.25;102545.28;4948281;28;97201;-69
2024/01/31 03:35:37;;;;;;;1.73;0.82;;;;;;;10.47;80.24;102556.69;4952494;28;101352;-69
2024/01/31 03:38:04;;;;;;;1.38;0.70;;;;;;;10.42;80.43;102554.09;4951484;28;99013;-69
2024/01/31 03:40:30;;;;;;;2.38;0.68;;;;;;;10.70;78.66;102566.22;4944571;28;98827;-70
2024/01/31 03:42:57;;;;;;;0.98;0.60;;;;;;;10.61;79.24;102563.66;4945368;28;97915;-70
2024/01/31 03:45:23;;;;;;;1.33;0.43;;;;;;;10.54;78.98;102563.69;4950960;28;96944;-70
2024/01/31 03:47:51;;;;;;;0.50;0.50;;;;;;;10.17;80.90;102571.84;4955176;28;98961;-70
2024/01/31 03:50:18;;;;;;;4.13;0.70;;;;;;;10.21;81.44;102570.06;4951046;28;98783;-69
2024/01/31 03:52:44;;;;;;;1.80;0.40;;;;;;;10.52;79.77;102569.00;4939488;28;97272;-70
2024/01/31 03:55:11;;;;;;;1.88;0.60;;;;;;;10.55;79.96;102571.63;4948865;28;96918;-70
2024/01/31 03:57:38;;;;;;;1.02;0.50;;;;;;;10.57;79.98;102577.75;4945882;28;98132;-69
2024/01/31 04:00:08;;;;;;;3.30;0.63;;;;;;;10.09;81.63;102573.63;4943706;28;100508;-69
2024/01/31 04:02:34;;;;;;;1.77;0.40;;;;;;;10.08;82.45;102577.13;4946738;28;96796;-70
2024/01/31 04:05:02;;;;;;;3.58;0.50;;;;;;;10.00;83.33;102579.81;4949095;28;97252;-70
2024/01/31 04:07:28;;;;;;;1.08;0.70;;;;;;;10.22;82.32;102579.75;4952864;28;101496;-69
2024/01/31 04:09:55;;;;;;;2.38;0.63;;;;;;;10.74;79.61;102586.47;4946781;28;98007;-70
2024/01/31 04:12:21;;;;;;;0.73;0.45;;;;;;;10.61;79.51;102592.72;4945864;28;97314;-70
2024/01/31 04:14:47;;;;;;;1.08;0.50;;;;;;;10.57;80.28;102590.97;4948946;28;97145;-70
2024/01/31 04:17:14;;;;;;;1.10;0.40;;;;;;;10.59;79.97;102591.84;4948078;28;99330;-70
2024/01/31 04:19:44;;;;;;;1.63;0.60;;;;;;;10.79;78.87;102597.88;4942892;28;98944;-70
2024/01/31 04:22:12;;;;;;;2.15;0.57;;;;;;;10.77;79.24;102591.72;4944641;28;98637;-70
2024/01/31 04:24:38;;;;;;;0.98;0.63;;;;;;;10.63;79.85;102595.38;4948831;28;97146;-70
2024/01/31 04:27:05;;;;;;;2.63;0.60;;;;;;;10.65;79.81;102588.28;4948320;28;102506;-70
2024/01/31 04:29:31;;;;;;;0.88;0.50;;;;;;;10.18;81.67;102593.84;4946762;28;97960;-72
2024/01/31 04:31:59;;;;;;;1.23;0.40;;;;;;;10.70;79.47;102600.59;4947794;28;96989;-70
2024/01/31 04:34:26;;;;;;;0.65;0.50;;;;;;;10.68;78.93;102594.44;4949264;28;98524;-69
2024/01/31 04:36:54;;;;;;;1.15;0.50;;;;;;;10.33;80.83;102605.22;4944167;28;98971;-70
2024/01/31 04:39:21;;;;;;;1.08;0.40;;;;;;;10.05;82.14;102610.59;4950741;28;98866;-69
2024/01/31 04:41:48;;;;;;;0.52;0.50;;;;;;;10.29;81.17;102600.84;4943594;28;98659;-69
2024/01/31 04:44:14;;;;;;;0.75;0.40;;;;;;;10.51;80.30;102598.94;4948718;28;97275;-69
2024/01/31 04:46:40;;;;;;;0.60;0.50;;;;;;;10.67;79.20;102616.50;4950881;28;99320;-69
2024/01/31 04:49:07;;;;;;;1.02;0.63;;;;;;;9.96;83.46;102604.47;4947518;28;99121;-69
2024/01/31 04:51:34;;;;;;;2.13;0.77;;;;;;;9.77;84.31;102605.44;4945882;28;97481;-69
2024/01/31 04:54:00;;;;;;;1.33;0.57;;;;;;;10.26;82.76;102608.78;4947935;28;96958;-70
2024/01/31 04:56:27;;;;;;;2.90;0.77;;;;;;;10.21;82.74;102612.34;4949264;28;99063;-69
2024/01/31 04:58:54;;;;;;;2.42;0.50;;;;;;;10.05;83.81;102606.19;4947107;28;102111;-69
2024/01/31 05:01:20;;;;;;;0.40;0.40;;;;;;;10.16;84.00;102601.75;4946709;28;97825;-69
2024/01/31 05:03:47;;;;;;;1.10;0.57;;;;;;;10.16;83.96;102607.03;4948358;28;96797;-68
2024/01/31 05:06:13;;;;;;;3.05;0.55;;;;;;;10.03;84.31;102609.75;4949526;28;99589;-69
2024/01/31 05:08:40;;;;;;;0.93;0.32;;;;;;;9.95;84.18;102609.75;4946729;28;97688;-71
2024/01/31 05:11:06;;;;;;;0.70;0.40;;;;;;;9.63;85.97;102620.41;4947558;28;97589;-70
2024/01/31 05:13:36;;;;;;;2.53;0.30;;;;;;;9.95;85.85;102622.97;4949506;28;97982;-69
2024/01/31 05:16:02;;;;;;;2.30;0.63;;;;;;;10.77;81.67;102622.56;4950404;28;99028;-70
2024/01/31 05:18:28;;;;;;;1.95;0.30;;;;;;;10.68;81.47;102628.81;4954658;28;102275;-69
2024/01/31 05:20:55;;;;;;;1.38;0.40;;;;;;;10.50;82.43;102628.91;4951585;28;99080;-70
2024/01/31 05:23:21;;;;;;;1.52;0.60;;;;;;;10.72;82.03;102632.31;4955118;28;99568;-70
2024/01/31 05:25:48;;;;;;;0.95;0.40;;;;;;;10.19;83.48;102632.59;4951643;28;98930;-70
2024/01/31 05:28:15;;;;;;;0.98;0.40;;;;;;;10.40;83.18;102624.56;4951481;28;99004;-69
2024/01/31 05:30:43;;;;;;;3.50;0.40;;;;;;;10.41;83.40;102628.97;4953689;28;96817;-69
2024/01/31 05:33:09;;;;;;;0.40;0.40;;;;;;;10.33;83.82;102623.72;4950764;28;96925;-70
2024/01/31 05:35:36;;;;;;;1.02;0.50;;;;;;;10.69;82.59;102648.22;4954052;28;100125;-69
2024/01/31 05:38:02;;;;;;;1.58;0.43;;;;;;;10.84;82.65;102653.38;4948875;28;98342;-69
2024/01/31 05:40:29;;;;;;;2.13;0.70;;;;;;;10.75;83.04;102656.09;4951546;28;97536;-69
2024/01/31 05:42:56;;;;;;;1.42;0.30;;;;;;;10.62;82.99;102668.50;4954422;28;97497;-69
2024/01/31 05:45:22;;;;;;;2.33;0.40;;;;;;;10.62;81.32;102665.88;4953116;28;99077;-69
2024/01/31 05:47:50;;;;;;;0.73;0.20;;;;;;;10.73;79.56;102668.44;4949829;28;101777;-69
2024/01/31 05:50:17;;;;;;;0.68;0.30;;;;;;;10.34;80.96;102665.13;4949333;28;96847;-70
2024/01/31 05:52:43;;;;;;;0.90;0.22;;;;;;;9.79;82.37;102669.63;4946972;28;97468;-69
2024/01/31 05:55:14;;;;;;;2.40;0.30;;;;;;;9.52;84.59;102682.88;4947437;28;98997;-70
2024/01/31 05:57:41;;;;;;;1.38;0.55;;;;;;;9.87;83.65;102675.78;4950426;28;98657;-71
2024/01/31 06:00:10;;;;;;;3.83;0.80;;;;;;;9.76;84.51;102682.88;4949581;28;97414;-70
2024/01/31 06:02:36;;;;;;;2.88;0.80;;;;;;;10.04;82.94;102688.97;4952827;28;97584;-70
2024/01/31 06:05:05;;;;;;;2.10;0.65;;;;;;;10.11;82.48;102693.31;4952838;28;99026;-70
2024/01/31 06:07:34;;;;;;;3.60;0.70;;;;;;;10.23;82.09;102693.34;4950371;28;98752;-69
2024/01/31 06:10:01;;;;;;;1.92;0.60;;;;;;;10.07;82.43;102693.34;4955645;28;97300;-71
2024/01/31 06:12:27;;;;;;;1.80;0.73;;;;;;;10.01;83.51;102702.19;4950338;28;97265;-69
2024/01/31 06:14:54;;;;;;;1.23;0.70;;;;;;;10.12;82.45;102705.66;4951962;28;98514;-68
2024/01/31 06:17:20;;;;;;;2.78;0.60;;;;;;;10.10;81.70;102706.56;4951129;28;98810;-69
2024/01/31 06:19:47;;;;;;;1.17;0.73;;;;;;;9.74;83.37;102711.00;4950069;28;96841;-69
2024/01/31 06:22:14;;;;;;;0.98;0.60;;;;;;;9.94;82.30;102711.88;4949411;28;97188;-69
2024/01/31 06:24:41;;;;;;;3.08;0.68;;;;;;;10.00;80.74;102706.56;4951495;28;99837;-70
2024/01/31 06:27:08;;;;;;;2.75;0.90;;;;;;;9.85;79.26;102717.16;4952324;28;99134;-69
2024/01/31 06:29:35;;;;;;;1.05;0.40;;;;;;;9.46;78.23;102725.09;4951343;28;96761;-70
2024/01/31 06:32:01;;;;;;;5.70;2.35;;;;;;;9.02;79.88;102725.91;4952099;28;97000;-69
2024/01/31 06:34:28;;;;;;;2.70;0.73;;;;;;;9.17;79.22;102725.97;4952279;28;101318;-69
2024/01/31 06:36:55;;;;;;;1.58;0.80;;;;;;;9.59;77.74;102730.38;4953861;28;97469;-67
2024/01/31 06:39:23;;;;;;;1.65;0.70;;;;;;;9.95;75.70;102744.44;4954079;28;96883;-69
2024/01/31 06:41:49;;;;;;;5.53;0.80;;;;;;;10.14;74.81;102737.38;4950795;28;98040;-69
2024/01/31 06:44:16;;;;;;;1.88;0.47;;;;;;;9.70;76.18;102746.22;4957715;28;103658;-69
2024/01/31 06:46:47;;;;;;;3.45;0.57;;;;;;;9.97;75.81;102738.28;4951568;28;98989;-69
2024/01/31 06:49:13;;;;;;;2.40;0.95;;;;;;;9.99;75.40;102743.53;4953397;28;97957;-70
2024/01/31 06:51:40;;;;;;;3.35;0.93;;;;;;;10.09;74.02;102753.22;4949012;28;97216;-69
2024/01/31 06:54:07;;;;;;;2.22;0.45;;;;;;;10.09;72.41;102755.00;4947763;28;98894;-71
2024/01/31 06:56:35;;;;;;;1.92;0.70;;;;;;;9.83;70.29;102761.19;4950450;28;102163;-69
2024/01/31 06:59:01;;;;;;;3.97;0.75;;;;;;;9.77;70.84;102745.34;4949992;28;96805;-69
2024/01/31 07:01:28;;;;;;;0.93;0.40;;;;;;;10.04;69.00;102755.00;4945059;28;97540;-69
2024/01/31 07:03:54;;;;;;;0.98;0.47;;;;;;;10.08;67.66;102742.66;4949917;28;99237;-69
2024/01/31 07:06:21;;;;;;;1.20;0.50;;;;;;;9.72;68.84;102762.03;4948881;28;99362;-69
2024/01/31 07:08:47;;;;;;;1.05;0.45;;;;;;;9.84;68.71;102756.78;4947402;28;96747;-70
2024/01/31 07:11:14;;;;;;;1.70;0.38;;;;;;;9.73;68.47;102769.09;4946122;28;97512;-70
2024/01/31 07:13:42;;;;;;;1.48;0.80;;;;;;;9.94;67.53;102762.03;4954288;28;101762;-69
2024/01/31 07:16:10;;;;;;;4.90;0.60;;;;;;;9.86;68.19;102765.56;4953240;28;98763;-70
2024/01/31 07:18:39;;;;;;;1.65;0.50;;;;;;;9.87;68.14;102762.94;4943835;28;98054;-70
2024/01/31 07:21:05;;;;;;;1.48;0.40;;;;;;;10.13;67.45;102768.19;4944897;28;97363;-71
2024/01/31 07:23:32;;;;;;;1.70;0.43;;;;;;;10.17;67.17;102777.03;4946463;28;99250;-70
2024/01/31 07:25:58;;;;;;;2.15;0.50;;;;;;;10.12;66.90;102774.34;4948394;28;101647;-71
2024/01/31 07:28:24;;;;;;;1.60;0.30;;;;;;;10.17;66.84;102777.91;4948509;28;96976;-70
2024/01/31 07:30:52;;;;;;;2.92;0.40;;;;;;;10.24;66.84;102787.56;4949101;28;98748;-70
2024/01/31 07:33:19;;;;;;;0.70;0.40;;;;;;;10.10;67.35;102793.75;4950259;28;97704;-70
2024/01/31 07:35:46;;;;;;;1.50;0.50;;;;;;;10.05;68.23;102804.28;4949289;28;98779;-71
2024/01/31 07:38:12;;;;;;;0.52;0.52;;;;;;;10.03;68.45;102811.34;4947720;28;98741;-70
2024/01/31 07:40:39;;;;;;;0.73;0.47;;;;;;;9.74;69.14;102792.84;4953214;28;97135;-70
2024/01/31 07:43:05;;;;;;;1.17;0.50;;;;;;;9.76;68.38;102800.78;4945480;28;99565;-70
2024/01/31 07:45:32;;;;;;;2.20;0.60;;;;;;;10.08;67.65;102812.22;4948810;28;97727;-70
2024/01/31 07:48:00;;;;;;;2.03;0.63;;;;;;;10.27;66.08;102821.03;4951680;28;97287;-70
2024/01/31 07:50:26;;;;;;;2.33;0.60;;;;;;;10.42;63.84;102822.78;4949916;28;97466;-70
2024/01/31 07:52:52;;;;;;;0.63;0.30;;;;;;;9.92;64.37;102819.25;4943006;28;98910;-70
2024/01/31 07:55:19;;;;;;;1.10;0.50;;;;;;;10.24;64.63;102818.41;4941050;28;99283;-70
2024/01/31 07:57:45;;;;;;;1.48;0.45;;;;;;;10.50;63.38;102821.84;4943960;28;97102;-70
2024/01/31 08:00:13;;;;;;;0.75;0.30;;;;;;;10.44;63.80;102826.28;4941440;28;98667;-69
2024/01/31 08:02:39;;;;;;;1.02;0.35;;;;;;;10.46;63.51;102828.06;4944221;28;101266;-69
2024/01/31 08:05:07;;;;;;;1.23;0.40;;;;;;;10.70;63.29;102827.09;4939432;28;98990;-71
2024/01/31 08:07:34;;;;;;;3.45;0.45;;;;;;;11.02;62.66;102833.19;4941652;28;98747;-71
2024/01/31 08:10:00;;;;;;;1.52;0.40;;;;;;;10.97;62.15;102826.13;4929895;28;97080;-70
2024/01/31 08:12:27;;;;;;;1.25;0.40;;;;;;;10.71;63.50;102837.66;4926777;28;99265;-71
2024/01/31 08:14:53;;;;;;;3.05;0.35;;;;;;;10.75;63.25;102834.16;4941845;28;99746;-70
2024/01/31 08:17:20;;;;;;;3.90;0.40;;;;;;;10.48;64.30;102847.44;4945189;28;98708;-71
2024/01/31 08:19:46;;;;;;;3.33;0.47;;;;;;;10.84;63.57;102840.28;4945793;28;97613;-71
2024/01/31 08:22:14;;;;;;;2.20;0.40;;;;;;;10.58;64.39;102835.94;4947636;28;99000;-70
2024/01/31 08:24:40;;;;;;;1.55;0.17;;;;;;;10.57;64.46;102833.28;4947111;28;98904;-71
2024/01/31 08:27:06;;;;;;;3.38;0.40;;;;;;;10.62;63.90;102839.47;4946757;28;97440;-70
2024/01/31 08:29:33;;;;;;;1.50;0.40;;;;;;;10.00;66.64;102837.75;4945805;28;97001;-70
2024/01/31 08:32:01;;;;;;;4.95;0.50;;;;;;;9.94;67.09;102850.97;4945976;28;98892;-70
2024/01/31 08:34:27;;;;;;;2.97;0.47;;;;;;;10.21;65.77;102850.09;4949306;28;99016;-70
2024/01/31 08:36:54;;;;;;;2.50;1.23;;;;;;;10.54;64.60;102846.53;4946882;28;98662;-68
2024/01/31 08:39:22;;;;;;;3.25;0.50;;;;;;;10.67;64.61;102850.91;4942823;28;97459;-71
2024/01/31 08:41:49;;;;;;;1.73;0.55;;;;;;;10.17;65.96;102856.28;4935666;28;99507;-71
2024/01/31 08:44:15;;;;;;;3.53;0.50;;;;;;;10.34;65.91;102865.06;4949256;28;99020;-72
2024/01/31 08:46:42;;;;;;;0.95;0.50;;;;;;;10.33;64.56;102850.09;4950746;28;96821;-70
2024/01/31 08:49:08;;;;;;;2.78;0.30;;;;;;;10.34;65.04;102871.25;4952470;28;96815;-70
2024/01/31 08:51:35;;;;;;;2.85;1.25;;;;;;;10.74;64.14;102865.88;4950069;28;99383;-71
2024/01/31 08:54:01;;;;;;;2.33;0.68;;;;;;;10.62;62.73;102868.56;4951547;28;98747;-70
2024/01/31 08:56:29;;;;;;;4.47;0.95;;;;;;;10.94;62.70;102868.47;4948539;28;96932;-70
2024/01/31 08:58:55;;;;;;;3.00;0.80;;;;;;;10.93;64.90;102879.94;4947958;28;99169;-70
2024/01/31 09:01:22;;;;;;;37.42;2.28;;;;;;;10.83;64.23;102880.84;4949447;28;99006;-71
2024/01/31 09:03:48;;;;;;;14.13;1.23;;;;;;;11.02;63.44;102885.19;4946190;28;99262;-70
2024/01/31 09:06:15;;;;;;;2.22;0.80;;;;;;;11.23;62.55;102890.38;4948771;28;97585;-70
2024/01/31 09:08:41;;;;;;;0.73;0.60;;;;;;;11.49;61.40;102877.91;4946304;28;98698;-70
2024/01/31 09:11:07;;;;;;;0.75;0.30;;;;;;;10.96;63.17;102888.72;4947653;28;98877;-70
2024/01/31 09:13:35;;;;;;;1.50;0.68;;;;;;;11.00;63.71;102897.53;4949410;28;99927;-70
2024/01/31 09:16:02;;;;;;;3.25;1.10;;;;;;;11.13;63.25;102891.31;4951082;28;96855;-69
2024/01/31 09:18:28;;;;;;;2.38;0.90;;;;;;;10.98;62.44;102888.72;4946267;28;97648;-71
2024/01/31 09:20:55;;;;;;;2.33;1.05;;;;;;;10.99;63.03;102890.50;4946923;28;99140;-71
2024/01/31 09:23:22;;;;;;;2.33;0.40;;;;;;;10.78;63.74;102884.38;4948082;28;100493;-71
2024/01/31 09:25:49;;;;;;;6.05;1.40;;;;;;;11.10;62.27;102886.91;4946676;28;98938;-70
2024/01/31 09:28:15;;;;;;;3.65;0.70;;;;;;;11.12;61.24;102879.84;4947030;28;98746;-71
2024/01/31 09:30:44;;;;;;;2.05;0.60;;;;;;;10.91;60.99;102884.34;4940784;28;101548;-71
2024/01/31 09:33:10;;;;;;;2.08;0.60;;;;;;;10.92;61.06;102880.81;4941524;28;99173;-71
2024/01/31 09:35:36;;;;;;;3.53;0.60;;;;;;;10.95;60.79;102880.81;4947580;28;97315;-70
2024/01/31 09:38:03;;;;;;;0.17;0.10;;;;;;;11.13;59.29;102876.34;4950157;28;96860;-70
2024/01/31 09:40:30;;;;;;;4.50;0.30;;;;;;;11.13;58.61;102881.63;4945787;28;99088;-71
2024/01/31 09:42:56;;;;;;;4.85;0.57;;;;;;;11.13;58.58;102872.81;4944241;28;97693;-70
2024/01/31 09:45:23;;;;;;;3.22;0.90;;;;;;;11.06;58.09;102884.28;4950815;28;96744;-71
2024/01/31 09:47:52;;;;;;;3.72;0.52;;;;;;;10.98;58.29;102880.78;4946861;28;98356;-70
2024/01/31 09:50:19;;;;;;;1.77;0.40;;;;;;;10.77;58.23;102879.09;4948348;28;100412;-71
2024/01/31 09:52:51;;;;;;;3.08;0.60;;;;;;;10.74;58.21;102872.06;4942992;28;99169;-70
2024/01/31 09:55:20;;;;;;;9.48;2.90;;;;;;;10.94;57.96;102874.63;4944541;28;97653;-72
2024/01/31 09:57:47;;;;;;;6.20;0.60;;;;;;;10.98;57.06;102872.84;4947157;28;97428;-70
2024/01/31 10:00:13;;;;;;;3.17;0.60;;;;;;;10.77;58.37;102872.03;4949115;28;97981;-70
2024/01/31 10:02:41;;;;;;;2.60;0.47;;;;;;;11.50;56.22;102863.78;4947432;28;97958;-71
2024/01/31 10:05:09;;;;;;;4.82;0.85;;;;;;;11.07;55.90;102849.00;4940574;28;98391;-71
2024/01/31 10:07:38;;;;;;;4.35;0.50;;;;;;;11.10;56.24;102843.69;4946837;28;97719;-70
2024/01/31 10:10:06;;;;;;;5.40;0.70;;;;;;;11.18;55.12;102836.59;4946891;28;102122;-70
2024/01/31 10:12:32;;;;;;;13.98;1.50;;;;;;;10.69;57.22;102838.59;4944651;28;99420;-70
2024/01/31 10:14:59;;;;;;;3.88;0.50;;;;;;;10.58;57.67;102843.00;4947207;28;98616;-70
2024/01/31 10:17:26;;;;;;;5.30;0.73;;;;;;;10.89;57.34;102854.38;4948018;28;96857;-71
2024/01/31 10:19:52;;;;;;;2.00;0.70;;;;;;;10.53;58.63;102843.00;4947419;28;99656;-71
2024/01/31 10:22:20;;;;;;;1.25;0.40;;;;;;;10.91;58.00;102852.59;4944751;28;98753;-71
2024/01/31 10:24:49;;;;;;;3.17;0.50;;;;;;;10.60;59.03;102852.69;4944750;28;97824;-70
2024/01/31 10:27:19;;;;;;;2.08;0.38;;;;;;;9.87;62.14;102859.75;4950531;28;97179;-70
2024/01/31 10:29:46;;;;;;;3.63;0.50;;;;;;;9.44;64.37;102867.59;4950243;28;99261;-70
2024/01/31 10:32:15;;;;;;;2.17;0.60;;;;;;;9.47;65.81;102869.34;4947293;28;100428;-70
2024/01/31 10:34:43;;;;;;;2.85;0.47;;;;;;;9.16;67.24;102865.75;4948143;28;96745;-70
2024/01/31 10:37:10;;;;;;;1.35;0.50;;;;;;;9.33;66.45;102860.50;4951749;28;96956;-71
2024/01/31 10:39:39;;;;;;;2.45;0.63;;;;;;;9.84;64.60;102862.41;4946468;28;98917;-70
2024/01/31 10:42:06;;;;;;;1.20;0.40;;;;;;;10.13;62.65;102858.00;4943918;28;99002;-70
2024/01/31 10:44:33;;;;;;;1.38;0.43;;;;;;;10.38;62.66;102848.31;4943510;28;99959;-71
2024/01/31 10:47:00;;;;;;;3.47;0.75;;;;;;;10.37;62.33;102855.38;4946710;28;98325;-71
2024/01/31 10:49:26;;;;;;;2.95;0.73;;;;;;;10.31;62.27;102860.66;4944651;28;100979;-71
2024/01/31 10:51:57;;;;;;;3.05;0.75;;;;;;;10.29;62.34;102861.56;4941985;28;98917;-69
2024/01/31 10:54:29;;;;;;;4.32;1.10;;;;;;;11.05;60.07;102877.25;4943145;28;98937;-70
2024/01/31 10:56:58;;;;;;;4.18;1.10;;;;;;;11.17;58.51;102869.25;4943235;28;99054;-71
2024/01/31 10:59:25;;;;;;;6.38;1.45;;;;;;;10.96;58.43;102877.28;4947085;28;97922;-70
2024/01/31 11:01:52;;;;;;;14.48;1.60;;;;;;;11.02;57.47;102866.69;4946412;28;99170;-70
2024/01/31 11:04:19;;;;;;;9.35;1.70;;;;;;;10.61;58.98;102870.31;4950147;28;97218;-73
2024/01/31 11:06:49;;;;;;;14.60;2.05;;;;;;;10.66;58.86;102867.66;4947034;28;98663;-70
2024/01/31 11:09:22;;;;;;;5.32;1.30;;;;;;;10.61;59.00;102859.75;4949605;28;101011;-71
2024/01/31 11:11:49;;;;;;;10.85;1.33;;;;;;;10.35;59.72;102853.63;4943905;28;101403;-71
2024/01/31 11:14:17;;;;;;;9.23;1.45;;;;;;;10.07;59.71;102842.16;4948729;28;99555;-72
2024/01/31 11:16:43;;;;;;;7.60;1.23;;;;;;;10.19;59.52;102834.25;4947430;28;97348;-72
2024/01/31 11:19:19;;;;;;;13.68;2.30;;;;;;;10.58;58.89;102843.88;4946526;28;99005;-71
2024/01/31 11:21:46;;;;;;;9.20;1.55;;;;;;;9.98;59.91;102843.03;4946355;28;98899;-71